KGUP/GUP METAR and TAF weather

Enter ICAO airport designator
Station Type Date Time Source
KGUP METAR 2019/12/13 02:53 UTC NOAA

KGUP 130253Z AUTO 21008KT 10SM CLR 04/M03 A3025 RMK AO2 SLP267 T00391028 50001


Station Type Date Time Source
KGUP Decoded METAR 2019/12/13 02:53 UTC NOAA

GALLUP MUNICIPAL AIRPORT, NM, United States (KGUP) 35-31N 108-47W 1971M
Dec 12, 2019 - 09:53 PM EST / 2019.12.13 0253 UTC
Wind: from the SSW (210 degrees) at 9 MPH (8 KT):0
Visibility: 10 mile(s):0
Sky conditions: clear
Temperature: 39.0 F (3.9 C)
Dew Point: 27.0 F (-2.8 C)
Relative Humidity: 61%
Pressure (altimeter): 30.25 in. Hg (1024 hPa)
Pressure tendency: 0.00 inches (0.1 hPa) higher than three hours ago
ob: KGUP 130253Z AUTO 21008KT 10SM CLR 04/M03 A3025 RMK AO2 SLP267 T00391028 50001
cycle: 3

Station Type Date Time Source
KGUP TAF 2019/12/12 18:22 UTC NOAA

TAF KGUP 121720Z 1218/1318 VRB03KT P6SM FEW250
FM121900 24011KT P6SM SCT250
FM130200 22007KT P6SM SCT200

Example: see airport list